Time,TemperatureF,DewpointF,PressureIn,WindDirection,WindDirectionDegrees,WindSpeedMPH,WindSpeedGustMPH,Humidity,HourlyPrecipIn,Conditions,Clouds,dailyrainin,SolarRadiationWatts/m^2,SoftwareType,DateUTC
2013-04-25 00:02:00,48.2,41.7,30.04,East,83,0.0,0.0,78,0.00,CLR,,0.00,0.0,WeatherDisplay:10.37,2013-04-25 07:02:00,
2013-04-25 00:07:00,48.0,41.8,30.04,East,83,0.0,0.0,79,0.00,CLR,,0.00,0.0,WeatherDisplay:10.37,2013-04-25 07:07:00,
2013-04-25 00:12:00,47.8,41.6,30.04,East,83,0.0,0.0,79,0.00,CLR,,0.00,0.0,WeatherDisplay:10.37,2013-04-25 07:12:00,
2013-04-25 00:17:00,47.6,41.4,30.04,East,83,0.0,0.0,79,0.00,CLR,,0.00,0.0,WeatherDisplay:10.37,2013-04-25 07:17:00,
2013-04-25 00:22:00,47.5,41.3,30.04,East,83,0.0,0.0,79,0.00,CLR,,0.00,0.0,WeatherDisplay:10.37,2013-04-25 07:22:00,
2013-04-25 00:27:00,47.3,41.1,30.04,East,83,0.0,0.0,79,0.00,CLR,,0.00,0.0,WeatherDisplay:10.37,2013-04-25 07:27:00,
2013-04-25 00:32:00,47.1,40.9,30.04,East,83,0.0,0.0,79,0.00,CLR,,0.00,0.0,WeatherDisplay:10.37,2013-04-25 07:32:00,
2013-04-25 00:37:00,47.0,41.5,30.05,East,83,0.0,0.0,81,0.00,CLR,,0.00,0.0,WeatherDisplay:10.37,2013-04-25 07:37:00,
2013-04-25 00:42:00,46.8,41.3,30.05,East,83,0.0,0.0,81,0.00,CLR,,0.00,0.0,WeatherDisplay:10.37,2013-04-25 07:42:00,
2013-04-25 00:47:00,46.7,41.2,30.05,East,83,0.0,0.0,81,0.00,CLR,,0.00,0.0,WeatherDisplay:10.37,2013-04-25 07:47:00,
2013-04-25 00:52:00,46.5,41.0,30.05,East,83,0.0,0.0,81,0.00,CLR,,0.00,0.0,WeatherDisplay:10.37,2013-04-25 07:52:00,
2013-04-25 00:57:00,46.4,40.9,30.05,East,88,0.0,0.0,81,0.00,CLR,,0.00,0.0,WeatherDisplay:10.37,2013-04-25 07:57:00,
2013-04-25 01:02:00,46.3,41.1,30.05,East,88,0.0,0.0,82,0.00,CLR,,0.00,0.0,WeatherDisplay:10.37,2013-04-25 08:02:00,
2013-04-25 01:07:00,46.2,41.3,30.05,East,88,0.0,0.0,83,0.00,CLR,,0.00,0.0,WeatherDisplay:10.37,2013-04-25 08:07:00,
2013-04-25 01:12:00,46.1,41.2,30.05,East,88,0.0,0.0,83,0.00,CLR,,0.00,0.0,WeatherDisplay:10.37,2013-04-25 08:12:00,
2013-04-25 01:17:00,46.0,41.5,30.05,SE,140,0.0,0.0,84,0.00,CLR,,0.00,0.0,WeatherDisplay:10.37,2013-04-25 08:17:00,
2013-04-25 01:22:00,45.9,41.4,30.05,SE,131,0.0,0.0,84,0.00,CLR,,0.00,0.0,WeatherDisplay:10.37,2013-04-25 08:22:00,
2013-04-25 01:27:00,45.9,41.7,30.05,SE,129,0.2,1.2,85,0.00,CLR,,0.00,0.0,WeatherDisplay:10.37,2013-04-25 08:27:00,
2013-04-25 01:32:00,45.9,41.7,30.05,ESE,123,3.3,4.6,85,0.00,CLR,,0.00,0.0,WeatherDisplay:10.37,2013-04-25 08:32:00,
2013-04-25 01:37:00,45.9,42.0,30.04,ESE,113,0.1,1.2,86,0.00,CLR,,0.00,0.0,WeatherDisplay:10.37,2013-04-25 08:37:00,
2013-04-25 01:42:00,45.9,42.0,30.04,ESE,113,0.0,0.0,86,0.00,CLR,,0.00,0.0,WeatherDisplay:10.37,2013-04-25 08:42:00,
2013-04-25 01:47:00,45.9,42.3,30.03,ESE,113,0.0,0.0,87,0.00,CLR,,0.00,0.0,WeatherDisplay:10.37,2013-04-25 08:47:00,
2013-04-25 01:52:00,45.9,42.3,30.03,SE,125,2.6,3.5,87,0.00,CLR,,0.00,0.0,WeatherDisplay:10.37,2013-04-25 08:52:00,
2013-04-25 01:57:00,45.8,42.2,30.03,SE,132,5.8,6.9,87,0.00,CLR,,0.00,0.0,WeatherDisplay:10.37,2013-04-25 08:57:00,
2013-04-25 02:02:00,46.0,42.7,30.03,ESE,107,6.7,6.9,88,0.00,CLR,,0.00,0.0,WeatherDisplay:10.37,2013-04-25 09:02:00,
2013-04-25 02:07:00,46.4,43.4,30.03,ESE,117,7.2,8.1,89,0.00,CLR,,0.00,0.0,WeatherDisplay:10.37,2013-04-25 09:07:00,
2013-04-25 02:12:00,46.8,43.7,30.03,ESE,105,7.7,10.4,89,0.00,CLR,,0.00,0.0,WeatherDisplay:10.37,2013-04-25 09:12:00,
2013-04-25 02:17:00,47.0,43.9,30.03,ESE,117,6.8,8.1,89,0.00,CLR,,0.00,0.0,WeatherDisplay:10.37,2013-04-25 09:17:00,
2013-04-25 02:22:00,47.1,44.0,30.03,ESE,121,7.1,8.1,89,0.00,CLR,,0.00,0.0,WeatherDisplay:10.37,2013-04-25 09:22:00,
2013-04-25 02:27:00,47.2,44.1,30.03,SE,137,5.9,5.9,89,0.00,CLR,,0.00,0.0,WeatherDisplay:10.37,2013-04-25 09:27:00,
2013-04-25 02:32:00,47.3,44.2,30.03,SE,136,3.3,4.6,89,0.00,CLR,,0.00,0.0,WeatherDisplay:10.37,2013-04-25 09:32:00,
2013-04-25 02:37:00,47.4,44.0,30.03,SE,136,0.0,0.0,88,0.00,CLR,,0.00,0.0,WeatherDisplay:10.37,2013-04-25 09:37:00,
2013-04-25 02:42:00,47.4,44.0,30.03,SSE,163,4.1,4.6,88,0.00,CLR,,0.00,0.0,WeatherDisplay:10.37,2013-04-25 09:42:00,
2013-04-25 02:47:00,47.4,44.0,30.03,South,177,6.6,8.1,88,0.00,CLR,,0.00,0.0,WeatherDisplay:10.37,2013-04-25 09:47:00,
2013-04-25 02:52:00,47.4,43.7,30.03,SSW,212,3.0,4.6,87,0.00,CLR,,0.00,0.0,WeatherDisplay:10.37,2013-04-25 09:52:00,
2013-04-25 02:57:00,47.4,43.7,30.03,SSE,161,2.8,3.5,87,0.00,CLR,,0.00,0.0,WeatherDisplay:10.37,2013-04-25 09:57:00,
2013-04-25 03:02:00,47.3,43.6,30.03,SSE,166,3.9,5.8,87,0.00,CLR,,0.00,0.0,WeatherDisplay:10.37,2013-04-25 10:02:00,
2013-04-25 03:07:00,47.3,43.6,30.03,SSE,167,4.2,5.8,87,0.00,CLR,,0.00,0.0,WeatherDisplay:10.37,2013-04-25 10:07:00,
2013-04-25 03:12:00,47.2,43.5,30.02,SSE,155,6.0,6.7,87,0.00,CLR,,0.00,0.0,WeatherDisplay:10.37,2013-04-25 10:12:00,
2013-04-25 03:17:00,47.3,43.6,30.03,SSE,168,1.4,5.8,87,0.00,CLR,,0.00,0.0,WeatherDisplay:10.37,2013-04-25 10:17:00,
2013-04-25 03:22:00,47.3,43.6,30.03,SSE,161,3.5,4.6,87,0.00,CLR,,0.00,0.0,WeatherDisplay:10.37,2013-04-25 10:22:00,
2013-04-25 03:27:00,47.4,43.7,30.03,SSE,158,4.7,6.9,87,0.00,CLR,,0.00,0.0,WeatherDisplay:10.37,2013-04-25 10:27:00,
2013-04-25 03:32:00,47.4,43.4,30.02,South,172,6.9,10.4,86,0.00,CLR,,0.00,0.0,WeatherDisplay:10.37,2013-04-25 10:32:00,
2013-04-25 03:37:00,47.4,43.4,30.02,SSE,162,5.5,5.8,86,0.00,CLR,,0.00,0.0,WeatherDisplay:10.37,2013-04-25 10:37:00,
2013-04-25 03:42:00,47.5,43.2,30.02,South,188,2.0,2.3,85,0.00,CLR,,0.00,0.0,WeatherDisplay:10.37,2013-04-25 10:42:00,
2013-04-25 03:47:00,47.5,43.2,30.02,South,180,1.1,4.6,85,0.00,CLR,,0.00,0.0,WeatherDisplay:10.37,2013-04-25 10:47:00,
2013-04-25 03:52:00,47.5,43.2,30.02,South,179,2.3,3.5,85,0.00,CLR,,0.00,0.0,WeatherDisplay:10.37,2013-04-25 10:52:00,
2013-04-25 03:57:00,47.4,43.1,30.03,South,177,0.8,2.2,85,0.00,CLR,,0.00,0.0,WeatherDisplay:10.37,2013-04-25 10:57:00,
2013-04-25 04:02:00,47.4,43.1,30.02,SSE,166,1.4,0.0,85,0.00,CLR,,0.00,0.0,WeatherDisplay:10.37,2013-04-25 11:02:00,
2013-04-25 04:07:00,47.4,42.8,30.02,South,175,0.0,0.0,84,0.00,CLR,,0.00,0.0,WeatherDisplay:10.37,2013-04-25 11:07:00,
2013-04-25 04:12:00,47.4,42.8,30.02,South,177,0.0,0.0,84,0.00,CLR,,0.00,0.0,WeatherDisplay:10.37,2013-04-25 11:12:00,
2013-04-25 04:17:00,47.3,42.7,30.02,SSE,150,0.1,3.4,84,0.00,CLR,,0.00,0.0,WeatherDisplay:10.37,2013-04-25 11:17:00,
2013-04-25 04:22:00,47.3,42.7,30.03,SSE,149,0.0,0.0,84,0.00,CLR,,0.00,0.0,WeatherDisplay:10.37,2013-04-25 11:22:00,
2013-04-25 04:27:00,47.2,42.6,30.02,SSE,149,0.0,0.0,84,0.00,CLR,,0.00,0.0,WeatherDisplay:10.37,2013-04-25 11:27:00,
2013-04-25 04:32:00,47.1,42.5,30.03,WSW,248,0.0,0.0,84,0.00,CLR,,0.00,0.0,WeatherDisplay:10.37,2013-04-25 11:32:00,
2013-04-25 04:37:00,47.1,42.8,30.03,WSW,248,0.0,0.0,85,0.00,CLR,,0.00,0.0,WeatherDisplay:10.37,2013-04-25 11:37:00,
2013-04-25 04:42:00,47.1,42.8,30.03,WSW,248,0.0,2.3,85,0.00,CLR,,0.00,0.0,WeatherDisplay:10.37,2013-04-25 11:42:00,
2013-04-25 04:47:00,47.0,43.0,30.03,WSW,250,0.5,3.5,86,0.00,CLR,,0.00,0.0,WeatherDisplay:10.37,2013-04-25 11:47:00,
2013-04-25 04:52:00,47.0,43.0,30.03,WSW,250,0.0,2.3,86,0.00,CLR,,0.00,0.0,WeatherDisplay:10.37,2013-04-25 11:52:00,
2013-04-25 04:58:00,47.0,43.0,30.03,WSW,250,0.0,0.0,86,0.00,CLR,,0.00,0.0,WeatherDisplay:10.37,2013-04-25 11:58:00,
2013-04-25 05:03:00,47.0,43.0,30.03,WSW,250,0.0,0.0,86,0.00,CLR,,0.00,0.0,WeatherDisplay:10.37,2013-04-25 12:03:00,
2013-04-25 05:08:00,46.9,43.0,30.03,WSW,250,0.0,0.0,86,0.00,CLR,,0.00,0.0,WeatherDisplay:10.37,2013-04-25 12:08:00,
2013-04-25 05:13:00,46.8,42.5,30.03,NE,53,3.8,4.6,85,0.00,CLR,,0.00,0.0,WeatherDisplay:10.37,2013-04-25 12:13:00,
2013-04-25 05:18:00,46.6,42.4,30.03,East,89,2.3,3.5,85,0.00,CLR,,0.00,0.0,WeatherDisplay:10.37,2013-04-25 12:18:00,
2013-04-25 05:23:00,46.3,42.1,30.03,SE,124,3.5,4.6,85,0.00,CLR,,0.00,0.0,WeatherDisplay:10.37,2013-04-25 12:23:00,
2013-04-25 05:28:00,46.2,42.0,30.03,SE,127,3.8,4.6,85,0.00,CLR,,0.00,0.0,WeatherDisplay:10.37,2013-04-25 12:28:00,
2013-04-25 05:33:00,46.2,42.3,30.03,ESE,120,0.0,0.0,86,0.00,CLR,,0.00,0.0,WeatherDisplay:10.37,2013-04-25 12:33:00,
2013-04-25 05:38:00,46.1,42.2,30.02,ESE,120,0.0,0.0,86,0.00,CLR,,0.00,0.0,WeatherDisplay:10.37,2013-04-25 12:38:00,
2013-04-25 05:43:00,46.0,42.1,30.02,SE,128,0.4,3.5,86,0.00,CLR,,0.00,0.0,WeatherDisplay:10.37,2013-04-25 12:43:00,
2013-04-25 05:48:00,45.9,42.0,30.02,ESE,122,1.6,3.5,86,0.00,CLR,,0.00,5.8,WeatherDisplay:10.37,2013-04-25 12:48:00,
2013-04-25 05:53:00,45.8,42.2,30.03,ESE,122,0.0,0.0,87,0.00,CLR,,0.00,8.1,WeatherDisplay:10.37,2013-04-25 12:53:00,
2013-04-25 05:58:00,45.7,42.1,30.03,ESE,122,0.0,0.0,87,0.00,CLR,,0.00,10.3,WeatherDisplay:10.37,2013-04-25 12:58:00,
2013-04-25 06:03:00,45.6,42.0,30.02,ESE,122,0.0,0.0,87,0.00,CLR,,0.00,13.8,WeatherDisplay:10.37,2013-04-25 13:03:00,
2013-04-25 06:08:00,45.5,41.9,30.03,ESE,122,1.5,3.5,87,0.00,CLR,,0.00,18.4,WeatherDisplay:10.37,2013-04-25 13:08:00,
2013-04-25 06:13:00,45.4,41.8,30.03,ESE,122,0.0,0.0,87,0.00,CLR,,0.00,24.1,WeatherDisplay:10.37,2013-04-25 13:13:00,
2013-04-25 06:18:00,45.3,41.7,30.03,ESE,122,0.0,0.0,87,0.00,CLR,,0.00,29.9,WeatherDisplay:10.37,2013-04-25 13:18:00,
2013-04-25 06:23:00,45.2,41.6,30.03,ESE,122,0.0,0.0,87,0.00,CLR,,0.00,36.8,WeatherDisplay:10.37,2013-04-25 13:23:00,
2013-04-25 06:28:00,45.1,41.5,30.03,ESE,122,0.2,1.2,87,0.00,CLR,,0.00,42.5,WeatherDisplay:10.37,2013-04-25 13:28:00,
2013-04-25 06:33:00,45.0,41.4,30.03,SE,126,1.6,3.5,87,0.00,CLR,,0.00,54.0,WeatherDisplay:10.37,2013-04-25 13:33:00,
2013-04-25 06:38:00,45.0,41.7,30.03,SE,136,0.5,2.3,88,0.00,CLR,,0.00,61.0,WeatherDisplay:10.37,2013-04-25 13:38:00,
2013-04-25 06:43:00,44.9,41.6,30.03,SE,129,0.0,0.0,88,0.00,CLR,,0.00,72.5,WeatherDisplay:10.37,2013-04-25 13:43:00,
2013-04-25 06:48:00,44.9,41.6,30.03,SE,129,0.0,0.0,88,0.00,CLR,,0.00,87.4,WeatherDisplay:10.37,2013-04-25 13:48:00,
2013-04-25 06:53:00,44.9,41.6,30.03,SE,129,0.0,0.0,88,0.00,CLR,,0.00,98.9,WeatherDisplay:10.37,2013-04-25 13:53:00,
2013-04-25 06:58:00,44.9,41.9,30.03,SE,129,0.0,0.0,89,0.00,CLR,,0.00,115.0,WeatherDisplay:10.37,2013-04-25 13:58:00,
2013-04-25 07:03:00,45.0,42.0,30.03,SE,137,4.2,4.6,89,0.00,CLR,,0.00,127.7,WeatherDisplay:10.37,2013-04-25 14:03:00,
2013-04-25 07:08:00,45.2,42.5,30.03,SE,133,5.6,6.9,90,0.00,CLR,,0.00,139.2,WeatherDisplay:10.37,2013-04-25 14:08:00,
2013-04-25 07:13:00,45.4,42.7,30.04,SE,138,5.7,5.8,90,0.00,CLR,,0.00,155.3,WeatherDisplay:10.37,2013-04-25 14:13:00,
2013-04-25 07:18:00,45.7,43.0,30.04,SE,140,3.5,4.6,90,0.00,CLR,,0.00,175.9,WeatherDisplay:10.37,2013-04-25 14:18:00,
2013-04-25 07:23:00,45.9,43.2,30.03,SE,144,1.1,2.3,90,0.00,CLR,,0.00,192.1,WeatherDisplay:10.37,2013-04-25 14:23:00,
2013-04-25 07:28:00,46.1,43.6,30.03,SSE,167,1.7,4.6,91,0.00,CLR,,0.00,210.4,WeatherDisplay:10.37,2013-04-25 14:28:00,
2013-04-25 07:33:00,46.3,43.8,30.03,SSE,167,0.7,3.5,91,0.00,CLR,,0.00,230.0,WeatherDisplay:10.37,2013-04-25 14:33:00,
2013-04-25 07:38:00,46.5,44.0,30.03,SSE,165,0.0,0.0,91,0.00,CLR,,0.00,228.8,WeatherDisplay:10.37,2013-04-25 14:38:00,
2013-04-25 07:43:00,46.8,44.3,30.03,South,188,1.1,4.6,91,0.00,CLR,,0.00,248.4,WeatherDisplay:10.37,2013-04-25 14:43:00,
2013-04-25 07:48:00,47.3,45.1,30.03,South,186,1.7,5.8,92,0.00,CLR,,0.00,218.5,WeatherDisplay:10.37,2013-04-25 14:48:00,
2013-04-25 07:53:00,47.7,45.5,30.04,SSW,205,5.3,6.9,92,0.00,CLR,,0.00,216.2,WeatherDisplay:10.37,2013-04-25 14:53:00,
2013-04-25 07:58:00,48.2,45.7,30.04,SW,217,2.8,5.8,91,0.00,CLR,,0.00,178.3,WeatherDisplay:10.37,2013-04-25 14:58:00,
2013-04-25 08:03:00,48.6,46.1,30.04,SSW,200,7.6,10.1,91,0.00,CLR,,0.00,271.4,WeatherDisplay:10.37,2013-04-25 15:03:00,
2013-04-25 08:08:00,49.1,46.3,30.04,SSW,192,7.4,13.8,90,0.00,CLR,,0.00,296.7,WeatherDisplay:10.37,2013-04-25 15:08:00,
2013-04-25 08:13:00,49.6,46.5,30.04,SW,223,9.4,11.5,89,0.00,CLR,,0.00,338.1,WeatherDisplay:10.37,2013-04-25 15:13:00,
2013-04-25 08:18:00,50.1,46.4,30.05,WSW,246,7.3,8.1,87,0.00,CLR,,0.00,317.4,WeatherDisplay:10.37,2013-04-25 15:18:00,
2013-04-25 08:23:00,50.4,46.4,30.05,SW,233,8.8,9.2,86,0.00,CLR,,0.00,309.4,WeatherDisplay:10.37,2013-04-25 15:23:00,
2013-04-25 08:28:00,50.8,46.5,30.05,SW,229,6.8,10.4,85,0.00,CLR,,0.00,339.3,WeatherDisplay:10.37,2013-04-25 15:28:00,
2013-04-25 08:33:00,51.1,46.5,30.05,SW,219,11.7,12.7,84,0.00,CLR,,0.00,335.8,WeatherDisplay:10.37,2013-04-25 15:33:00,
2013-04-25 08:38:00,51.4,46.1,30.05,SW,234,6.5,10.4,82,0.00,CLR,,0.00,392.1,WeatherDisplay:10.37,2013-04-25 15:38:00,
2013-04-25 08:43:00,51.6,46.3,30.05,SW,227,8.2,9.2,82,0.00,CLR,,0.00,402.5,WeatherDisplay:10.37,2013-04-25 15:43:00,
2013-04-25 08:48:00,51.9,46.3,30.05,SSW,213,10.1,13.8,81,0.00,CLR,,0.00,438.1,WeatherDisplay:10.37,2013-04-25 15:48:00,
2013-04-25 08:53:00,52.2,46.6,30.05,SSW,205,7.5,11.5,81,0.00,CLR,,0.00,463.4,WeatherDisplay:10.37,2013-04-25 15:53:00,
2013-04-25 08:58:00,52.4,46.8,30.05,SW,215,9.3,11.2,81,0.00,CLR,,0.00,485.3,WeatherDisplay:10.37,2013-04-25 15:58:00,
2013-04-25 09:03:00,52.6,46.3,30.05,SW,219,13.2,13.8,79,0.00,CLR,,0.00,509.4,WeatherDisplay:10.37,2013-04-25 16:03:00,
2013-04-25 09:08:00,52.7,46.4,30.05,SW,226,10.7,10.7,79,0.00,CLR,,0.00,525.5,WeatherDisplay:10.37,2013-04-25 16:08:00,
2013-04-25 09:13:00,52.9,46.2,30.05,SW,229,9.9,12.7,78,0.00,CLR,,0.00,515.2,WeatherDisplay:10.37,2013-04-25 16:13:00,
2013-04-25 09:18:00,53.1,46.4,30.05,SW,225,9.6,12.7,78,0.00,CLR,,0.00,530.1,WeatherDisplay:10.37,2013-04-25 16:18:00,
2013-04-25 09:23:00,53.2,46.9,30.06,WSW,246,6.8,10.4,79,0.00,CLR,,0.00,563.5,WeatherDisplay:10.37,2013-04-25 16:23:00,
2013-04-25 09:28:00,53.3,47.0,30.06,SW,217,9.1,11.2,79,0.00,CLR,,0.00,581.9,WeatherDisplay:10.37,2013-04-25 16:28:00,
2013-04-25 09:33:00,53.5,46.8,30.06,SW,226,10.3,10.4,78,0.00,CLR,,0.00,598.0,WeatherDisplay:10.37,2013-04-25 16:33:00,
2013-04-25 09:38:00,53.6,47.3,30.06,SW,221,10.2,11.5,79,0.00,CLR,,0.00,632.5,WeatherDisplay:10.37,2013-04-25 16:38:00,
2013-04-25 09:43:00,53.7,47.0,30.06,SSW,206,9.2,12.7,78,0.00,CLR,,0.00,695.8,WeatherDisplay:10.37,2013-04-25 16:43:00,
2013-04-25 09:48:00,53.8,47.1,30.06,SSW,212,12.3,13.8,78,0.00,CLR,,0.00,755.5,WeatherDisplay:10.37,2013-04-25 16:48:00,
2013-04-25 09:53:00,53.9,46.9,30.06,SW,221,11.1,11.5,77,0.00,CLR,,0.00,598.0,WeatherDisplay:10.37,2013-04-25 16:53:00,
2013-04-25 09:58:00,54.1,47.1,30.06,SW,215,8.0,11.5,77,0.00,CLR,,0.00,438.1,WeatherDisplay:10.37,2013-04-25 16:58:00,
2013-04-25 10:03:00,54.1,47.1,30.07,SW,227,9.6,11.5,77,0.00,CLR,,0.00,614.1,WeatherDisplay:10.37,2013-04-25 17:03:00,
2013-04-25 10:08:00,54.3,47.3,30.07,WSW,237,11.8,12.7,77,0.00,CLR,,0.00,683.1,WeatherDisplay:10.37,2013-04-25 17:08:00,
2013-04-25 10:13:00,54.4,47.4,30.07,SSW,203,9.7,12.7,77,0.00,CLR,,0.00,703.8,WeatherDisplay:10.37,2013-04-25 17:13:00,
2013-04-25 10:19:00,54.7,48.0,30.07,SW,229,10.4,12.7,78,0.00,CLR,,0.00,688.9,WeatherDisplay:10.37,2013-04-25 17:19:00,
2013-04-25 10:24:00,54.9,47.5,30.07,SW,215,9.5,12.7,76,0.00,CLR,,0.00,725.6,WeatherDisplay:10.37,2013-04-25 17:24:00,
2013-04-25 10:29:00,55.0,47.9,30.07,SW,231,11.0,12.7,77,0.00,CLR,,0.00,736.0,WeatherDisplay:10.37,2013-04-25 17:29:00,
2013-04-25 10:34:00,55.2,48.1,30.07,SW,222,11.9,13.8,77,0.00,CLR,,0.00,728.0,WeatherDisplay:10.37,2013-04-25 17:34:00,
2013-04-25 10:39:00,55.4,48.3,30.07,SW,224,13.4,13.8,77,0.00,CLR,,0.00,755.5,WeatherDisplay:10.37,2013-04-25 17:39:00,
2013-04-25 10:44:00,55.7,48.6,30.07,SW,220,11.0,11.5,77,0.00,CLR,,0.00,752.1,WeatherDisplay:10.37,2013-04-25 17:44:00,
2013-04-25 10:49:00,55.9,48.5,30.07,SW,217,9.2,10.4,76,0.00,CLR,,0.00,780.9,WeatherDisplay:10.37,2013-04-25 17:49:00,
2013-04-25 10:54:00,56.3,49.2,30.08,SW,221,12.0,12.7,77,0.00,CLR,,0.00,794.6,WeatherDisplay:10.37,2013-04-25 17:54:00,
2013-04-25 10:59:00,56.3,48.5,30.08,SW,221,9.2,10.4,75,0.00,CLR,,0.00,794.6,WeatherDisplay:10.37,2013-04-25 17:59:00,
2013-04-25 11:04:00,56.4,48.9,30.08,WSW,239,6.4,8.1,76,0.00,CLR,,0.00,797.0,WeatherDisplay:10.37,2013-04-25 18:04:00,
2013-04-25 11:09:00,56.8,49.3,30.08,WSW,251,6.9,8.1,76,0.00,CLR,,0.00,832.6,WeatherDisplay:10.37,2013-04-25 18:09:00,
2013-04-25 11:14:00,57.1,49.3,30.08,SW,236,9.3,12.3,75,0.00,CLR,,0.00,830.3,WeatherDisplay:10.37,2013-04-25 18:14:00,
2013-04-25 11:19:00,57.2,49.4,30.08,SW,232,7.5,8.1,75,0.00,CLR,,0.00,847.5,WeatherDisplay:10.37,2013-04-25 18:19:00,
2013-04-25 11:24:00,57.4,49.9,30.08,WSW,243,7.2,10.4,76,0.00,CLR,,0.00,829.1,WeatherDisplay:10.37,2013-04-25 18:24:00,
2013-04-25 11:29:00,57.4,49.6,30.08,SW,230,6.5,8.1,75,0.00,CLR,,0.00,824.5,WeatherDisplay:10.37,2013-04-25 18:29:00,
2013-04-25 11:34:00,57.6,50.5,30.08,SSW,213,6.7,9.2,77,0.00,CLR,,0.00,770.5,WeatherDisplay:10.37,2013-04-25 18:34:00,
2013-04-25 11:39:00,57.7,50.2,30.08,SW,220,7.8,11.5,76,0.00,CLR,,0.00,840.6,WeatherDisplay:10.37,2013-04-25 18:39:00,
2013-04-25 11:44:00,57.6,50.1,30.08,West,260,6.1,8.1,76,0.00,CLR,,0.00,768.2,WeatherDisplay:10.37,2013-04-25 18:44:00,
2013-04-25 11:49:00,57.6,50.8,30.09,WSW,257,7.5,9.2,78,0.00,CLR,,0.00,891.3,WeatherDisplay:10.37,2013-04-25 18:49:00,
2013-04-25 11:54:00,58.0,50.8,30.08,WSW,254,6.9,8.1,77,0.00,CLR,,0.00,899.3,WeatherDisplay:10.37,2013-04-25 18:54:00,
2013-04-25 11:59:00,58.4,51.2,30.09,West,268,6.7,8.1,77,0.00,CLR,,0.00,897.0,WeatherDisplay:10.37,2013-04-25 18:59:00,
2013-04-25 12:04:00,58.5,51.0,30.08,West,269,6.4,6.9,76,0.00,CLR,,0.00,851.0,WeatherDisplay:10.37,2013-04-25 19:04:00,
2013-04-25 12:09:00,58.5,50.6,30.09,West,266,6.9,8.1,75,0.00,CLR,,0.00,928.0,WeatherDisplay:10.37,2013-04-25 19:09:00,
2013-04-25 12:14:00,58.5,51.0,30.09,WSW,252,7.3,8.1,76,0.00,CLR,,0.00,933.8,WeatherDisplay:10.37,2013-04-25 19:14:00,
2013-04-25 12:19:00,58.8,51.3,30.09,WSW,252,6.8,8.1,76,0.00,CLR,,0.00,928.0,WeatherDisplay:10.37,2013-04-25 19:19:00,
2013-04-25 12:24:00,59.0,50.7,30.09,West,275,5.2,6.9,74,0.00,CLR,,0.00,947.6,WeatherDisplay:10.37,2013-04-25 19:24:00,
2013-04-25 12:29:00,59.3,51.0,30.09,West,272,7.3,8.1,74,0.00,CLR,,0.00,947.6,WeatherDisplay:10.37,2013-04-25 19:29:00,
2013-04-25 12:34:00,59.3,50.7,30.09,West,264,6.6,8.1,73,0.00,CLR,,0.00,954.5,WeatherDisplay:10.37,2013-04-25 19:34:00,
2013-04-25 12:39:00,59.2,50.2,30.09,West,270,7.1,8.1,72,0.00,CLR,,0.00,931.5,WeatherDisplay:10.37,2013-04-25 19:39:00,
2013-04-25 12:44:00,59.2,50.2,30.09,West,272,6.7,8.1,72,0.00,CLR,,0.00,879.8,WeatherDisplay:10.37,2013-04-25 19:44:00,
2013-04-25 12:49:00,59.3,50.7,30.09,West,271,7.5,8.1,73,0.00,CLR,,0.00,883.2,WeatherDisplay:10.37,2013-04-25 19:49:00,
2013-04-25 12:54:00,59.4,50.4,30.09,West,278,5.9,6.9,72,0.00,CLR,,0.00,906.2,WeatherDisplay:10.37,2013-04-25 19:54:00,
2013-04-25 12:59:00,59.4,50.4,30.09,WNW,287,5.6,6.9,72,0.00,CLR,,0.00,954.5,WeatherDisplay:10.37,2013-04-25 19:59:00,
2013-04-25 13:04:00,59.5,50.9,30.09,WNW,289,4.5,5.6,73,0.00,CLR,,0.00,960.3,WeatherDisplay:10.37,2013-04-25 20:04:00,
2013-04-25 13:09:00,59.8,50.8,30.10,WNW,290,4.9,6.9,72,0.00,CLR,,0.00,952.2,WeatherDisplay:10.37,2013-04-25 20:09:00,
2013-04-25 13:14:00,60.0,51.3,30.10,West,264,2.3,5.8,73,0.00,CLR,,0.00,960.3,WeatherDisplay:10.37,2013-04-25 20:14:00,
2013-04-25 13:19:00,60.3,50.9,30.10,WSW,249,3.6,5.8,71,0.00,CLR,,0.00,962.5,WeatherDisplay:10.37,2013-04-25 20:19:00,
2013-04-25 13:24:00,60.4,50.6,30.09,West,266,1.8,5.8,70,0.00,CLR,,0.00,954.5,WeatherDisplay:10.37,2013-04-25 20:24:00,
2013-04-25 13:29:00,60.5,50.3,30.09,West,277,3.5,4.6,69,0.00,CLR,,0.00,963.7,WeatherDisplay:10.37,2013-04-25 20:29:00,
2013-04-25 13:34:00,60.5,49.9,30.09,West,268,3.3,4.6,68,0.00,CLR,,0.00,968.3,WeatherDisplay:10.37,2013-04-25 20:34:00,
2013-04-25 13:39:00,60.6,50.4,30.09,West,269,3.4,5.8,69,0.00,CLR,,0.00,864.8,WeatherDisplay:10.37,2013-04-25 20:39:00,
2013-04-25 13:44:00,60.5,50.3,30.09,West,261,1.2,3.5,69,0.00,CLR,,0.00,930.4,WeatherDisplay:10.37,2013-04-25 20:44:00,
2013-04-25 13:49:00,60.5,50.3,30.09,WNW,298,0.6,4.6,69,0.00,CLR,,0.00,968.3,WeatherDisplay:10.37,2013-04-25 20:49:00,
2013-04-25 13:54:00,60.5,50.3,30.09,WSW,246,2.3,2.3,69,0.00,CLR,,0.00,946.5,WeatherDisplay:10.37,2013-04-25 20:54:00,
2013-04-25 13:59:00,60.6,50.4,30.09,SW,231,0.5,4.5,69,0.00,CLR,,0.00,939.5,WeatherDisplay:10.37,2013-04-25 20:59:00,
2013-04-25 14:04:00,60.6,50.0,30.09,West,269,0.3,1.2,68,0.00,CLR,,0.00,830.3,WeatherDisplay:10.37,2013-04-25 21:04:00,
2013-04-25 14:09:00,60.5,49.5,30.09,West,261,2.1,3.5,67,0.00,CLR,,0.00,899.3,WeatherDisplay:10.37,2013-04-25 21:09:00,
2013-04-25 14:14:00,60.6,49.6,30.09,WNW,291,1.3,3.5,67,0.00,CLR,,0.00,952.2,WeatherDisplay:10.37,2013-04-25 21:14:00,
2013-04-25 14:19:00,60.5,50.3,30.09,West,264,4.2,5.8,69,0.00,CLR,,0.00,897.0,WeatherDisplay:10.37,2013-04-25 21:19:00,
2013-04-25 14:24:00,60.6,50.0,30.09,West,273,1.1,3.4,68,0.00,CLR,,0.00,939.5,WeatherDisplay:10.37,2013-04-25 21:24:00,
2013-04-25 14:29:00,60.7,50.5,30.09,West,264,0.4,3.5,69,0.00,CLR,,0.00,897.0,WeatherDisplay:10.37,2013-04-25 21:29:00,
2013-04-25 14:34:00,60.9,50.3,30.09,West,275,0.0,0.0,68,0.00,CLR,,0.00,895.9,WeatherDisplay:10.37,2013-04-25 21:34:00,
2013-04-25 14:39:00,61.1,50.1,30.09,WNW,283,0.0,1.2,67,0.00,CLR,,0.00,897.0,WeatherDisplay:10.37,2013-04-25 21:39:00,
2013-04-25 14:44:00,61.2,49.8,30.09,WNW,283,0.4,2.3,66,0.00,CLR,,0.00,897.0,WeatherDisplay:10.37,2013-04-25 21:44:00,
2013-04-25 14:49:00,61.4,50.0,30.09,WNW,284,0.0,2.3,66,0.00,CLR,,0.00,887.8,WeatherDisplay:10.37,2013-04-25 21:49:00,
2013-04-25 14:54:00,61.7,49.4,30.09,NW,305,0.5,3.5,64,0.00,CLR,,0.00,883.2,WeatherDisplay:10.37,2013-04-25 21:54:00,
2013-04-25 14:59:00,61.9,50.0,30.09,WNW,285,4.0,4.6,65,0.00,CLR,,0.00,861.4,WeatherDisplay:10.37,2013-04-25 21:59:00,
2013-04-25 15:04:00,61.9,50.0,30.09,WNW,295,3.1,5.8,65,0.00,CLR,,0.00,872.9,WeatherDisplay:10.37,2013-04-25 22:04:00,
2013-04-25 15:09:00,61.6,49.7,30.09,WNW,288,4.0,4.6,65,0.00,CLR,,0.00,822.3,WeatherDisplay:10.37,2013-04-25 22:09:00,
2013-04-25 15:14:00,61.6,50.1,30.09,WNW,295,3.5,4.6,66,0.00,CLR,,0.00,853.3,WeatherDisplay:10.37,2013-04-25 22:14:00,
2013-04-25 15:19:00,61.4,49.1,30.09,WNW,294,3.5,3.5,64,0.00,CLR,,0.00,837.2,WeatherDisplay:10.37,2013-04-25 22:19:00,
2013-04-25 15:24:00,61.2,48.5,30.08,WNW,294,2.9,3.5,63,0.00,CLR,,0.00,805.0,WeatherDisplay:10.37,2013-04-25 22:24:00,
2013-04-25 15:29:00,61.0,48.7,30.09,WNW,296,3.2,4.6,64,0.00,CLR,,0.00,784.3,WeatherDisplay:10.37,2013-04-25 22:29:00,
2013-04-25 15:34:00,61.0,48.7,30.08,WNW,298,2.3,5.6,64,0.00,CLR,,0.00,805.0,WeatherDisplay:10.37,2013-04-25 22:34:00,
2013-04-25 15:39:00,61.1,49.3,30.08,NW,315,2.0,4.6,65,0.00,CLR,,0.00,788.9,WeatherDisplay:10.37,2013-04-25 22:39:00,
2013-04-25 15:44:00,61.4,49.5,30.08,NW,313,0.8,3.5,65,0.00,CLR,,0.00,687.7,WeatherDisplay:10.37,2013-04-25 22:44:00,
2013-04-25 15:49:00,61.7,49.8,30.08,NW,312,2.2,2.3,65,0.00,CLR,,0.00,741.8,WeatherDisplay:10.37,2013-04-25 22:49:00,
2013-04-25 15:54:00,61.8,49.5,30.08,NW,307,1.4,3.5,64,0.00,CLR,,0.00,765.9,WeatherDisplay:10.37,2013-04-25 22:54:00,
2013-04-25 15:59:00,62.1,49.8,30.08,NW,304,2.3,3.5,64,0.00,CLR,,0.00,757.9,WeatherDisplay:10.37,2013-04-25 22:59:00,
2013-04-25 16:04:00,62.3,50.4,30.08,WNW,303,0.3,1.2,65,0.00,CLR,,0.00,744.0,WeatherDisplay:10.37,2013-04-25 23:04:00,
2013-04-25 16:09:00,62.4,50.1,30.08,WNW,301,2.1,4.6,64,0.00,CLR,,0.00,730.3,WeatherDisplay:10.37,2013-04-25 23:09:00,
2013-04-25 16:14:00,62.4,50.1,30.08,WNW,299,1.7,3.5,64,0.00,CLR,,0.00,722.2,WeatherDisplay:10.37,2013-04-25 23:14:00,
2013-04-25 16:20:00,62.7,50.8,30.08,WNW,285,4.5,5.8,65,0.00,CLR,,0.00,709.5,WeatherDisplay:10.37,2013-04-25 23:20:00,
2013-04-25 16:25:00,62.7,49.5,30.08,WNW,287,3.2,4.6,62,0.00,CLR,,0.00,695.8,WeatherDisplay:10.37,2013-04-25 23:25:00,
2013-04-25 16:30:00,62.6,50.3,30.07,WNW,290,1.9,3.5,64,0.00,CLR,,0.00,679.6,WeatherDisplay:10.37,2013-04-25 23:30:00,
2013-04-25 16:35:00,62.5,50.6,30.07,WNW,295,3.2,4.5,65,0.00,CLR,,0.00,638.3,WeatherDisplay:10.37,2013-04-25 23:35:00,
2013-04-25 16:40:00,62.6,49.8,30.07,WNW,295,2.0,4.6,63,0.00,CLR,,0.00,604.9,WeatherDisplay:10.37,2013-04-25 23:40:00,
2013-04-25 16:45:00,62.4,50.1,30.07,WNW,296,4.2,4.6,64,0.00,CLR,,0.00,606.0,WeatherDisplay:10.37,2013-04-25 23:45:00,
2013-04-25 16:50:00,62.3,50.8,30.07,WNW,295,1.9,3.5,66,0.00,CLR,,0.00,610.6,WeatherDisplay:10.37,2013-04-25 23:50:00,
2013-04-25 16:55:00,62.2,51.1,30.07,NW,318,1.2,5.8,67,0.00,CLR,,0.00,568.1,WeatherDisplay:10.37,2013-04-25 23:55:00,
2013-04-25 17:00:00,62.6,51.5,30.07,NW,317,0.7,2.3,67,0.00,CLR,,0.00,571.5,WeatherDisplay:10.37,2013-04-26 00:00:00,
2013-04-25 17:05:00,62.7,51.6,30.07,NW,312,4.3,5.8,67,0.00,CLR,,0.00,538.2,WeatherDisplay:10.37,2013-04-26 00:05:00,
2013-04-25 17:10:00,62.7,51.6,30.07,NW,314,3.0,5.0,67,0.00,CLR,,0.00,504.9,WeatherDisplay:10.37,2013-04-26 00:10:00,
2013-04-25 17:15:00,62.7,51.9,30.07,NW,320,6.0,7.0,68,0.00,CLR,,0.00,515.2,WeatherDisplay:10.37,2013-04-26 00:15:00,
2013-04-25 17:20:00,62.7,50.8,30.08,NNW,334,6.5,8.1,65,0.00,CLR,,0.00,487.6,WeatherDisplay:10.37,2013-04-26 00:20:00,
2013-04-25 17:25:00,62.9,50.1,30.08,NNW,336,6.0,6.0,63,0.00,CLR,,0.00,446.2,WeatherDisplay:10.37,2013-04-26 00:25:00,
2013-04-25 17:30:00,63.1,50.7,30.07,NNW,345,0.8,3.5,64,0.00,CLR,,0.00,420.9,WeatherDisplay:10.37,2013-04-26 00:30:00,
2013-04-25 17:35:00,63.4,52.3,30.07,NNW,341,0.0,0.0,67,0.00,CLR,,0.00,418.6,WeatherDisplay:10.37,2013-04-26 00:35:00,
2013-04-25 17:40:00,63.7,51.7,30.07,NNW,341,0.0,2.0,65,0.00,CLR,,0.00,402.5,WeatherDisplay:10.37,2013-04-26 00:40:00,
2013-04-25 17:45:00,64.0,51.2,30.07,NNW,340,0.0,0.0,63,0.00,CLR,,0.00,438.1,WeatherDisplay:10.37,2013-04-26 00:45:00,
2013-04-25 17:50:00,64.2,51.8,30.07,NNW,341,1.3,0.0,64,0.00,CLR,,0.00,424.4,WeatherDisplay:10.37,2013-04-26 00:50:00,
2013-04-25 17:55:00,64.5,51.6,30.07,NNW,341,0.0,3.0,63,0.00,CLR,,0.00,400.2,WeatherDisplay:10.37,2013-04-26 00:55:00,
2013-04-25 18:00:00,64.8,51.9,30.07,NNW,340,0.0,3.5,63,0.00,CLR,,0.00,317.4,WeatherDisplay:10.37,2013-04-26 01:00:00,
2013-04-25 18:05:00,64.9,52.0,30.07,NNW,340,0.0,1.0,63,0.00,CLR,,0.00,317.4,WeatherDisplay:10.37,2013-04-26 01:05:00,
2013-04-25 18:10:00,64.7,51.8,30.07,NNW,340,1.4,2.3,63,0.00,CLR,,0.00,266.8,WeatherDisplay:10.37,2013-04-26 01:10:00,
2013-04-25 18:15:00,64.6,51.3,30.07,NNW,340,0.0,0.0,62,0.00,CLR,,0.00,282.9,WeatherDisplay:10.37,2013-04-26 01:15:00,
2013-04-25 18:20:00,64.5,51.2,30.07,NNW,340,0.0,0.0,62,0.00,CLR,,0.00,274.9,WeatherDisplay:10.37,2013-04-26 01:20:00,
2013-04-25 18:25:00,64.4,51.5,30.07,NNW,334,0.0,2.0,63,0.00,CLR,,0.00,317.4,WeatherDisplay:10.37,2013-04-26 01:25:00,
2013-04-25 18:30:00,64.3,51.5,30.07,WNW,303,0.0,0.0,63,0.00,CLR,,0.00,304.8,WeatherDisplay:10.37,2013-04-26 01:30:00,
2013-04-25 18:35:00,64.2,51.3,30.07,WNW,303,0.0,0.0,63,0.00,CLR,,0.00,287.5,WeatherDisplay:10.37,2013-04-26 01:35:00,
2013-04-25 18:40:00,64.0,51.2,30.07,WNW,303,0.0,0.0,63,0.00,CLR,,0.00,271.4,WeatherDisplay:10.37,2013-04-26 01:40:00,
2013-04-25 18:45:00,63.7,51.3,30.07,WNW,303,0.0,0.0,64,0.00,CLR,,0.00,228.8,WeatherDisplay:10.37,2013-04-26 01:45:00,
2013-04-25 18:50:00,63.4,51.0,30.07,WNW,303,0.0,0.0,64,0.00,CLR,,0.00,224.3,WeatherDisplay:10.37,2013-04-26 01:50:00,
2013-04-25 18:55:00,63.2,50.8,30.07,WNW,303,0.0,0.0,64,0.00,CLR,,0.00,202.4,WeatherDisplay:10.37,2013-04-26 01:55:00,
2013-04-25 19:00:00,63.0,50.2,30.07,WNW,303,0.0,0.0,63,0.00,CLR,,0.00,159.8,WeatherDisplay:10.37,2013-04-26 02:00:00,
2013-04-25 19:05:00,62.8,50.5,30.07,WNW,303,0.0,0.0,64,0.00,CLR,,0.00,154.1,WeatherDisplay:10.37,2013-04-26 02:05:00,
2013-04-25 19:10:00,62.6,50.3,30.07,WNW,303,0.0,0.0,64,0.00,CLR,,0.00,138.0,WeatherDisplay:10.37,2013-04-26 02:10:00,
2013-04-25 19:15:00,62.4,50.5,30.07,WNW,303,0.0,0.0,65,0.00,CLR,,0.00,125.3,WeatherDisplay:10.37,2013-04-26 02:15:00,
2013-04-25 19:20:00,62.2,50.3,30.07,WNW,303,0.0,0.0,65,0.00,CLR,,0.00,95.5,WeatherDisplay:10.37,2013-04-26 02:20:00,
2013-04-25 19:25:00,62.0,50.1,30.07,WNW,303,0.0,0.0,65,0.00,CLR,,0.00,66.7,WeatherDisplay:10.37,2013-04-26 02:25:00,
2013-04-25 19:30:00,61.8,50.3,30.07,WNW,303,0.0,0.0,66,0.00,CLR,,0.00,58.6,WeatherDisplay:10.37,2013-04-26 02:30:00,
2013-04-25 19:35:00,61.6,50.1,30.07,WNW,303,0.0,0.0,66,0.00,CLR,,0.00,56.4,WeatherDisplay:10.37,2013-04-26 02:35:00,
2013-04-25 19:40:00,61.3,50.3,30.07,WNW,303,0.0,0.0,67,0.00,CLR,,0.00,56.4,WeatherDisplay:10.37,2013-04-26 02:40:00,
2013-04-25 19:45:00,61.0,50.4,30.07,WNW,303,0.0,0.0,68,0.00,CLR,,0.00,64.4,WeatherDisplay:10.37,2013-04-26 02:45:00,
2013-04-25 19:50:00,60.7,50.5,30.07,WNW,303,0.0,0.0,69,0.00,CLR,,0.00,54.0,WeatherDisplay:10.37,2013-04-26 02:50:00,
2013-04-25 19:55:00,60.4,50.2,30.07,WNW,303,0.0,0.0,69,0.00,CLR,,0.00,40.3,WeatherDisplay:10.37,2013-04-26 02:55:00,
2013-04-25 20:00:00,60.2,50.0,30.07,SW,223,1.0,1.2,69,0.00,CLR,,0.00,32.2,WeatherDisplay:10.37,2013-04-26 03:00:00,
2013-04-25 20:05:00,60.0,49.4,30.07,SSW,210,3.0,5.0,68,0.00,CLR,,0.00,24.1,WeatherDisplay:10.37,2013-04-26 03:05:00,
2013-04-25 20:10:00,59.6,49.0,30.07,SSE,147,4.8,6.9,68,0.00,CLR,,0.00,16.1,WeatherDisplay:10.37,2013-04-26 03:10:00,
2013-04-25 20:15:00,59.0,48.5,30.07,SSE,151,4.9,6.9,68,0.00,CLR,,0.00,12.7,WeatherDisplay:10.37,2013-04-26 03:15:00,
2013-04-25 20:20:00,58.4,47.9,30.07,SSE,154,7.0,8.1,68,0.00,CLR,,0.00,8.1,WeatherDisplay:10.37,2013-04-26 03:20:00,
2013-04-25 20:25:00,58.0,47.5,30.07,SSW,195,7.0,10.4,68,0.00,CLR,,0.00,8.1,WeatherDisplay:10.37,2013-04-26 03:25:00,
2013-04-25 20:30:00,57.5,47.0,30.07,South,186,7.8,11.5,68,0.00,CLR,,0.00,5.8,WeatherDisplay:10.37,2013-04-26 03:30:00,
2013-04-25 20:35:00,57.0,46.9,30.08,SSW,194,10.0,11.5,69,0.00,CLR,,0.00,0.0,WeatherDisplay:10.37,2013-04-26 03:35:00,
2013-04-25 20:40:00,56.7,47.0,30.08,SSE,167,6.3,9.0,70,0.00,CLR,,0.00,0.0,WeatherDisplay:10.37,2013-04-26 03:40:00,
2013-04-25 20:45:00,56.4,46.8,30.08,SSE,167,8.1,12.3,70,0.00,CLR,,0.00,0.0,WeatherDisplay:10.37,2013-04-26 03:45:00,
2013-04-25 20:50:00,56.2,46.6,30.08,SSE,157,10.2,12.7,70,0.00,CLR,,0.00,0.0,WeatherDisplay:10.37,2013-04-26 03:50:00,
2013-04-25 20:55:00,56.0,46.7,30.08,South,177,10.2,12.7,71,0.00,CLR,,0.00,0.0,WeatherDisplay:10.37,2013-04-26 03:55:00,
2013-04-25 21:00:00,55.8,46.6,30.08,SSE,161,10.0,15.0,71,0.00,CLR,,0.00,0.0,WeatherDisplay:10.37,2013-04-26 04:00:00,
2013-04-25 21:01:00,55.8,46.2,30.08,SSE,161,11.3,15.0,70,0.00,CLR,,0.00,0.0,WeatherDisplay:10.37,2013-04-26 04:01:00,
2013-04-25 21:06:00,55.6,46.7,30.08,SSE,152,14.6,16.1,72,0.00,CLR,,0.00,0.0,WeatherDisplay:10.37,2013-04-26 04:06:00,
2013-04-25 21:11:00,55.5,47.0,30.08,SE,143,9.0,10.4,73,0.00,CLR,,0.00,0.0,WeatherDisplay:10.37,2013-04-26 04:11:00,
2013-04-25 21:16:00,55.4,46.9,30.09,SSE,150,12.2,15.0,73,0.00,CLR,,0.00,0.0,WeatherDisplay:10.37,2013-04-26 04:16:00,
2013-04-25 21:21:00,55.2,47.1,30.09,South,171,8.4,10.4,74,0.00,CLR,,0.00,0.0,WeatherDisplay:10.37,2013-04-26 04:21:00,
2013-04-25 21:26:00,55.1,47.3,30.09,SSE,155,9.5,12.7,75,0.00,CLR,,0.00,0.0,WeatherDisplay:10.37,2013-04-26 04:26:00,
2013-04-25 21:31:00,54.9,47.1,30.09,SE,138,11.0,12.7,75,0.00,CLR,,0.00,0.0,WeatherDisplay:10.37,2013-04-26 04:31:00,
2013-04-25 21:36:00,54.8,47.4,30.09,SSE,148,8.4,10.4,76,0.00,CLR,,0.00,0.0,WeatherDisplay:10.37,2013-04-26 04:36:00,
2013-04-25 21:41:00,54.8,47.4,30.10,SSE,159,8.6,12.7,76,0.00,CLR,,0.00,0.0,WeatherDisplay:10.37,2013-04-26 04:41:00,
2013-04-25 21:46:00,54.7,46.9,30.10,SSE,167,9.6,12.3,75,0.00,CLR,,0.00,0.0,WeatherDisplay:10.37,2013-04-26 04:46:00,
2013-04-25 21:51:00,54.7,46.9,30.10,South,171,11.2,13.4,75,0.00,CLR,,0.00,0.0,WeatherDisplay:10.37,2013-04-26 04:51:00,
2013-04-25 21:56:00,54.7,46.9,30.10,South,177,11.7,15.0,75,0.00,CLR,,0.00,0.0,WeatherDisplay:10.37,2013-04-26 04:56:00,
2013-04-25 22:01:00,54.8,47.0,30.10,SSE,163,13.8,15.0,75,0.00,CLR,,0.00,0.0,WeatherDisplay:10.37,2013-04-26 05:01:00,
2013-04-25 22:06:00,54.8,47.0,30.10,South,172,12.7,14.6,75,0.00,CLR,,0.00,0.0,WeatherDisplay:10.37,2013-04-26 05:06:00,
2013-04-25 22:11:00,54.8,47.0,30.10,South,182,12.4,12.7,75,0.00,CLR,,0.00,0.0,WeatherDisplay:10.37,2013-04-26 05:11:00,
2013-04-25 22:16:00,54.7,46.9,30.10,SSE,150,9.5,12.7,75,0.00,CLR,,0.00,0.0,WeatherDisplay:10.37,2013-04-26 05:16:00,
2013-04-25 22:21:00,54.6,46.9,30.10,SSE,164,11.6,13.8,75,0.00,CLR,,0.00,0.0,WeatherDisplay:10.37,2013-04-26 05:21:00,
2013-04-25 22:26:00,54.4,47.0,30.10,SSE,158,11.2,15.0,76,0.00,CLR,,0.00,0.0,WeatherDisplay:10.37,2013-04-26 05:26:00,
2013-04-25 22:31:00,54.2,46.8,30.10,SSE,156,12.5,12.5,76,0.00,CLR,,0.00,0.0,WeatherDisplay:10.37,2013-04-26 05:31:00,
2013-04-25 22:36:00,53.9,46.5,30.10,SSE,159,14.3,15.0,76,0.00,CLR,,0.00,0.0,WeatherDisplay:10.37,2013-04-26 05:36:00,
2013-04-25 22:41:00,53.6,46.6,30.10,SSE,161,10.9,17.3,77,0.00,CLR,,0.00,0.0,WeatherDisplay:10.37,2013-04-26 05:41:00,
2013-04-25 22:46:00,53.4,46.7,30.10,SSE,156,9.2,12.7,78,0.00,CLR,,0.00,0.0,WeatherDisplay:10.37,2013-04-26 05:46:00,
2013-04-25 22:51:00,53.2,47.2,30.10,South,177,13.1,13.8,80,0.00,CLR,,0.00,0.0,WeatherDisplay:10.37,2013-04-26 05:51:00,
2013-04-25 22:56:00,52.9,46.6,30.10,SSE,163,8.0,13.8,79,0.00,CLR,,0.00,0.0,WeatherDisplay:10.37,2013-04-26 05:56:00,
2013-04-25 23:01:00,52.7,46.7,30.10,SSE,165,7.7,15.0,80,0.00,CLR,,0.00,0.0,WeatherDisplay:10.37,2013-04-26 06:01:00,
2013-04-25 23:06:00,52.5,46.5,30.10,SSE,159,12.5,15.0,80,0.00,CLR,,0.00,0.0,WeatherDisplay:10.37,2013-04-26 06:06:00,
2013-04-25 23:11:00,52.4,46.4,30.10,SSE,158,8.3,13.8,80,0.00,CLR,,0.00,0.0,WeatherDisplay:10.37,2013-04-26 06:11:00,
2013-04-25 23:16:00,52.5,47.2,30.10,SSE,159,1.4,6.9,82,0.00,CLR,,0.00,0.0,WeatherDisplay:10.37,2013-04-26 06:16:00,
2013-04-25 23:21:00,52.5,47.2,30.10,SE,128,10.7,15.0,82,0.00,CLR,,0.00,0.0,WeatherDisplay:10.37,2013-04-26 06:21:00,
2013-04-25 23:26:00,52.5,46.9,30.10,SSE,148,8.4,12.7,81,0.00,CLR,,0.00,0.0,WeatherDisplay:10.37,2013-04-26 06:26:00,
2013-04-25 23:31:00,52.5,46.9,30.10,SE,131,6.9,13.8,81,0.00,CLR,,0.00,0.0,WeatherDisplay:10.37,2013-04-26 06:31:00,
2013-04-25 23:36:00,52.4,46.8,30.10,South,186,4.8,11.5,81,0.00,CLR,,0.00,0.0,WeatherDisplay:10.37,2013-04-26 06:36:00,
2013-04-25 23:41:00,52.3,46.7,30.10,South,172,7.0,13.8,81,0.00,CLR,,0.00,0.0,WeatherDisplay:10.37,2013-04-26 06:41:00,
2013-04-25 23:47:00,52.2,46.2,30.11,South,178,7.0,8.1,80,0.00,CLR,,0.00,0.0,WeatherDisplay:10.37,2013-04-26 06:47:00,
2013-04-25 23:52:00,52.0,46.0,30.11,South,179,8.7,10.4,80,0.00,CLR,,0.00,0.0,WeatherDisplay:10.37,2013-04-26 06:52:00,
2013-04-25 23:57:00,51.8,45.8,30.11,South,191,9.8,13.8,80,0.00,CLR,,0.00,0.0,WeatherDisplay:10.37,2013-04-26 06:57:00,